Terminal Aerodrome Forecast
Issued by NWS Milwaukee/Sullivan, WI

Home | Current Version | Previous Version | Text Only | Print | Product List | Glossary On
Versions: 1 2 3 4 5 6 7 8 9 10 11 12 13 14 15 16 17 18 19 20 21 22 23 24 25 26 27 28 29 30 31
000
FTUS43 KMKX 231120
TAFMSN
TAF
KMSN 231120Z 2312/2412 34012G20KT P6SM OVC019
     FM231500 33013G23KT P6SM BKN017 OVC025
     FM232200 33010KT P6SM BKN025
     FM240200 32007KT P6SM BKN035=

USA.gov is the U.S. government's official web portal to all federal, state and local government web resources and services.